Time;durP1;ratioP1;P1;durP2;ratioP2;P2;SDS_P1;SDS_P2;PMS_P1;PMS_P2;Temp;Humidity;BMP_temperature;BMP_pressure;BME280_temperature;BME280_humidity;BME280_pressure;Samples;Min_cycle;Max_cycle;Signal;HPM_P1;HPM_P2
2021/10/31 00:00:23;;;;;;;3.95;3.17;;;12.10;19.90;;;;;;5079290;28;20040;-68
2021/10/31 00:02:56;;;;;;;5.25;3.72;;;12.20;19.00;;;;;;5073157;28;20297;-68
2021/10/31 00:05:29;;;;;;;5.82;2.83;;;12.40;18.00;;;;;;5072394;28;20518;-68
2021/10/31 00:07:58;;;;;;;4.47;3.35;;;12.40;17.90;;;;;;5071219;28;20101;-70
2021/10/31 00:10:26;;;;;;;4.65;3.38;;;12.40;17.60;;;;;;5085708;28;20097;-68
2021/10/31 00:12:57;;;;;;;4.30;3.00;;;12.50;17.60;;;;;;5072743;28;20878;-68
2021/10/31 00:15:27;;;;;;;3.95;2.80;;;12.40;17.90;;;;;;5068381;28;20036;-69
2021/10/31 00:17:55;;;;;;;4.18;2.80;;;12.50;16.80;;;;;;5075725;28;20055;-68
2021/10/31 00:20:25;;;;;;;4.82;3.10;;;12.50;16.80;;;;;;5056193;28;20051;-69
2021/10/31 00:22:53;;;;;;;4.40;2.60;;;12.50;16.90;;;;;;5077944;28;20075;-68
2021/10/31 00:25:24;;;;;;;4.07;2.70;;;12.50;17.30;;;;;;5081402;28;20093;-68
2021/10/31 00:27:52;;;;;;;3.53;2.70;;;12.50;16.80;;;;;;5086917;28;20051;-68
2021/10/31 00:30:22;;;;;;;5.57;2.88;;;12.60;16.80;;;;;;5085267;28;20561;-69
2021/10/31 00:32:50;;;;;;;4.68;3.38;;;12.50;16.70;;;;;;5080761;28;20119;-69
2021/10/31 00:35:18;;;;;;;5.78;3.00;;;12.60;16.80;;;;;;5080041;28;20050;-69
2021/10/31 00:37:46;;;;;;;4.88;2.78;;;12.60;16.40;;;;;;5087451;27;20122;-69
2021/10/31 00:40:15;;;;;;;4.03;2.70;;;12.70;16.30;;;;;;5088432;28;20062;-69
2021/10/31 00:42:45;;;;;;;4.82;2.63;;;12.60;17.20;;;;;;5078633;27;20112;-68
2021/10/31 00:45:13;;;;;;;3.88;2.90;;;12.60;17.70;;;;;;5084715;28;20097;-69
2021/10/31 00:47:41;;;;;;;4.75;3.55;;;12.60;17.50;;;;;;5088872;28;20414;-68
2021/10/31 00:50:11;;;;;;;4.22;3.10;;;12.50;17.70;;;;;;5083492;28;20492;-69
2021/10/31 00:52:41;;;;;;;4.53;3.30;;;12.50;17.90;;;;;;5078295;28;20695;-68
2021/10/31 00:55:09;;;;;;;7.95;3.40;;;12.50;18.10;;;;;;5092158;27;20076;-68
2021/10/31 00:57:37;;;;;;;4.43;3.13;;;12.50;18.30;;;;;;5095515;27;20032;-68
2021/10/31 01:00:09;;;;;;;5.38;3.53;;;12.40;18.70;;;;;;5096948;27;20043;-69
2021/10/31 01:02:38;;;;;;;5.20;3.33;;;12.30;19.40;;;;;;5098646;27;20047;-68
2021/10/31 01:05:10;;;;;;;5.47;3.83;;;12.20;20.10;;;;;;5091231;27;20044;-69
2021/10/31 01:07:53;;;;;;;4.32;3.67;;;12.10;20.10;;;;;;5097962;28;20071;-68
2021/10/31 01:10:38;;;;;;;7.93;4.07;;;12.00;21.40;;;;;;5097294;28;20064;-69
2021/10/31 01:13:27;;;;;;;6.03;3.80;;;11.90;22.90;;;;;;5087197;28;20051;-69
2021/10/31 01:16:15;;;;;;;4.20;3.30;;;11.90;23.30;;;;;;5073408;28;20056;-68
2021/10/31 01:19:01;;;;;;;6.55;3.50;;;11.70;25.10;;;;;;5081153;28;20036;-69
2021/10/31 01:21:42;;;;;;;5.85;4.20;;;11.70;25.70;;;;;;5094007;28;20046;-69
2021/10/31 01:24:44;;;;;;;5.75;3.97;;;11.80;25.90;;;;;;5083698;28;20131;-68
2021/10/31 01:27:43;;;;;;;6.18;4.00;;;11.70;26.60;;;;;;5079277;28;20054;-69
2021/10/31 01:30:17;;;;;;;6.80;4.32;;;11.70;27.50;;;;;;5093580;28;20040;-68
2021/10/31 01:33:02;;;;;;;4.68;3.72;;;11.70;27.10;;;;;;5085093;28;20606;-69
2021/10/31 01:35:54;;;;;;;6.18;4.10;;;11.50;28.20;;;;;;5092833;28;20043;-69
2021/10/31 01:38:33;;;;;;;7.15;3.80;;;11.40;29.80;;;;;;5102235;28;20063;-69
2021/10/31 01:41:07;;;;;;;4.53;3.20;;;11.50;30.00;;;;;;5099481;28;20488;-68
2021/10/31 01:43:50;;;;;;;5.72;3.63;;;11.40;30.70;;;;;;5094549;28;20580;-68
2021/10/31 01:46:28;;;;;;;5.57;4.03;;;11.40;32.30;;;;;;5100112;28;20056;-68
2021/10/31 01:49:12;;;;;;;5.13;3.65;;;11.30;33.70;;;;;;5093017;28;20055;-69
2021/10/31 01:51:49;;;;;;;4.45;3.28;;;11.30;34.50;;;;;;5089337;28;20131;-68
2021/10/31 01:54:25;;;;;;;3.97;2.97;;;11.20;35.50;;;;;;5090475;28;20166;-68
2021/10/31 01:57:00;;;;;;;4.10;3.70;;;11.30;36.30;;;;;;5075739;28;20135;-68
2021/10/31 01:59:38;;;;;;;5.82;3.70;;;11.20;36.30;;;;;;5081078;28;20059;-68
2021/10/31 02:02:09;;;;;;;7.85;3.10;;;11.20;38.00;;;;;;5088519;28;20158;-69
2021/10/31 02:04:45;;;;;;;4.18;3.20;;;11.20;38.00;;;;;;5094480;28;20043;-69
2021/10/31 02:07:17;;;;;;;4.60;3.58;;;11.20;38.10;;;;;;5091082;28;20131;-68
2021/10/31 02:09:47;;;;;;;5.00;3.83;;;11.20;37.50;;;;;;5072943;28;20054;-69
2021/10/31 02:12:21;;;;;;;5.88;3.63;;;11.20;38.00;;;;;;5089844;28;20507;-68
2021/10/31 02:14:54;;;;;;;4.80;4.07;;;11.20;36.50;;;;;;5089984;28;20048;-68
2021/10/31 02:17:28;;;;;;;6.63;4.13;;;11.10;38.00;;;;;;5092685;28;20527;-68
2021/10/31 02:20:01;;;;;;;6.10;4.55;;;11.20;36.60;;;;;;5094040;28;20491;-68
2021/10/31 02:22:31;;;;;;;7.60;4.80;;;11.20;36.20;;;;;;5089842;28;20050;-68
2021/10/31 02:25:04;;;;;;;6.88;4.40;;;11.10;36.20;;;;;;5087012;28;20048;-68
2021/10/31 02:27:41;;;;;;;5.63;4.57;;;11.10;37.30;;;;;;5092048;28;20135;-68
2021/10/31 02:30:11;;;;;;;6.05;3.97;;;11.10;37.00;;;;;;5095415;28;20487;-68
2021/10/31 02:32:42;;;;;;;5.55;4.32;;;11.00;37.20;;;;;;5088248;28;20115;-69
2021/10/31 02:35:14;;;;;;;6.85;4.78;;;11.10;37.40;;;;;;5088138;28;20036;-69
2021/10/31 02:37:45;;;;;;;6.38;4.55;;;11.00;36.80;;;;;;5089990;28;20105;-69
2021/10/31 02:40:21;;;;;;;9.23;4.87;;;11.00;36.80;;;;;;5090302;28;20155;-68
2021/10/31 02:42:50;;;;;;;5.35;4.65;;;10.90;37.00;;;;;;5087272;28;20328;-68
2021/10/31 02:45:19;;;;;;;7.85;5.25;;;11.00;37.00;;;;;;5089961;28;20040;-68
2021/10/31 02:47:49;;;;;;;6.75;5.28;;;11.00;34.70;;;;;;5092431;28;20550;-68
2021/10/31 02:50:22;;;;;;;8.60;6.20;;;11.00;34.80;;;;;;5091751;28;20043;-68
2021/10/31 02:53:09;;;;;;;6.72;5.50;;;10.90;35.20;;;;;;5087816;28;20036;-69
2021/10/31 02:55:48;;;;;;;7.53;5.20;;;10.90;35.20;;;;;;5088154;28;20131;-69
2021/10/31 02:58:21;;;;;;;6.97;5.45;;;10.90;35.30;;;;;;5094047;28;20071;-68
2021/10/31 03:00:55;;;;;;;5.60;4.57;;;10.90;35.80;;;;;;5092825;28;20048;-68
2021/10/31 03:03:25;;;;;;;7.78;5.63;;;10.90;35.70;;;;;;5092497;28;20062;-68
2021/10/31 03:05:53;;;;;;;5.97;5.22;;;11.00;35.30;;;;;;5091688;28;20075;-69
2021/10/31 03:08:26;;;;;;;7.85;6.20;;;11.00;34.80;;;;;;5094576;27;20054;-68
2021/10/31 03:10:59;;;;;;;8.10;5.28;;;11.00;34.40;;;;;;5074950;28;20111;-68
2021/10/31 03:13:31;;;;;;;8.77;5.10;;;11.00;35.50;;;;;;5090080;28;20448;-69
2021/10/31 03:15:59;;;;;;;6.97;5.50;;;11.00;34.10;;;;;;5095692;28;20072;-69
2021/10/31 03:18:28;;;;;;;6.75;5.10;;;11.10;33.80;;;;;;5097371;28;20044;-68
2021/10/31 03:21:02;;;;;;;6.53;5.13;;;11.20;32.80;;;;;;5093603;28;20066;-68
2021/10/31 03:23:30;;;;;;;7.40;5.32;;;11.20;32.30;;;;;;5092491;28;20067;-69
2021/10/31 03:26:00;;;;;;;6.38;4.68;;;11.20;32.70;;;;;;5094731;28;20047;-69
2021/10/31 03:28:30;;;;;;;4.68;4.13;;;11.30;32.40;;;;;;5095703;28;20127;-68
2021/10/31 03:30:58;;;;;;;6.57;5.15;;;11.30;32.00;;;;;;5095653;28;20599;-68
2021/10/31 03:33:28;;;;;;;6.78;4.97;;;11.30;32.00;;;;;;5088357;28;20051;-68
2021/10/31 03:36:00;;;;;;;6.85;4.70;;;11.30;32.30;;;;;;5100568;28;20044;-68
2021/10/31 03:38:28;;;;;;;7.20;4.65;;;11.30;31.70;;;;;;5094481;28;20079;-69
2021/10/31 03:40:57;;;;;;;7.45;4.85;;;11.40;31.90;;;;;;5095656;28;20571;-68
2021/10/31 03:43:27;;;;;;;6.18;4.80;;;11.30;31.60;;;;;;5072162;28;20036;-68
2021/10/31 03:45:55;;;;;;;5.13;4.32;;;11.40;31.80;;;;;;5092440;28;20052;-68
2021/10/31 03:48:28;;;;;;;6.90;5.40;;;11.40;31.00;;;;;;5094020;28;20040;-68
2021/10/31 03:50:58;;;;;;;6.18;4.38;;;11.40;31.00;;;;;;5097910;28;20063;-68
2021/10/31 03:53:26;;;;;;;7.00;4.72;;;11.30;31.30;;;;;;5091752;28;20093;-68
2021/10/31 03:55:59;;;;;;;6.20;5.05;;;11.30;30.70;;;;;;5091140;28;20051;-68
2021/10/31 03:58:28;;;;;;;8.00;4.93;;;11.30;30.80;;;;;;5091444;28;20056;-69
2021/10/31 04:00:56;;;;;;;6.82;4.90;;;11.30;30.40;;;;;;5093674;28;20079;-68
2021/10/31 04:03:26;;;;;;;7.65;5.47;;;11.20;31.40;;;;;;5090992;27;20123;-68
2021/10/31 04:05:54;;;;;;;6.05;5.45;;;11.10;32.00;;;;;;5094009;27;20059;-68
2021/10/31 04:08:25;;;;;;;7.32;5.15;;;11.10;31.90;;;;;;5101778;27;20056;-68
2021/10/31 04:10:53;;;;;;;6.72;4.72;;;11.10;32.40;;;;;;5095433;28;20127;-69
2021/10/31 04:13:24;;;;;;;7.47;5.07;;;11.10;31.70;;;;;;5051845;28;20032;-68
2021/10/31 04:15:57;;;;;;;8.35;5.40;;;11.20;30.90;;;;;;5087409;27;20513;-68
2021/10/31 04:18:25;;;;;;;6.38;5.38;;;11.20;30.90;;;;;;5081720;28;20495;-68
2021/10/31 04:20:56;;;;;;;6.72;5.15;;;11.20;30.60;;;;;;5096373;28;20048;-68
2021/10/31 04:23:24;;;;;;;5.85;5.05;;;11.20;31.00;;;;;;5086750;28;20511;-68
2021/10/31 04:25:58;;;;;;;6.68;4.78;;;11.20;29.70;;;;;;5094678;28;20055;-68
2021/10/31 04:28:26;;;;;;;7.35;6.10;;;11.20;29.70;;;;;;5070690;28;20097;-69
2021/10/31 04:30:54;;;;;;;8.95;5.28;;;11.10;29.70;;;;;;5093116;28;20063;-69
2021/10/31 04:33:23;;;;;;;7.43;5.90;;;11.10;30.30;;;;;;5089726;28;20499;-69
2021/10/31 04:35:57;;;;;;;8.30;6.15;;;11.00;30.80;;;;;;5091389;28;20048;-68
2021/10/31 04:38:30;;;;;;;7.30;5.70;;;11.00;31.00;;;;;;5092283;28;20063;-69
2021/10/31 04:40:59;;;;;;;6.72;5.68;;;11.00;31.40;;;;;;5093356;28;20071;-68
2021/10/31 04:43:31;;;;;;;10.50;6.22;;;10.90;32.10;;;;;;5087895;28;20039;-69
2021/10/31 04:45:59;;;;;;;9.88;6.38;;;10.90;31.70;;;;;;5091012;28;20043;-68
2021/10/31 04:48:32;;;;;;;8.95;6.60;;;10.90;32.00;;;;;;5090359;28;20526;-69
2021/10/31 04:51:05;;;;;;;7.30;5.85;;;10.90;32.20;;;;;;5090929;28;20093;-69
2021/10/31 04:53:33;;;;;;;7.60;6.80;;;10.90;32.50;;;;;;5086947;28;20089;-68
2021/10/31 04:56:04;;;;;;;10.63;6.38;;;10.90;32.00;;;;;;5096457;28;20044;-68
2021/10/31 04:58:33;;;;;;;8.95;6.43;;;10.90;32.20;;;;;;5090374;28;20062;-69
2021/10/31 05:01:04;;;;;;;8.68;6.43;;;10.80;32.10;;;;;;5094510;28;20115;-68
2021/10/31 05:03:35;;;;;;;8.50;6.55;;;10.80;32.80;;;;;;5088132;28;20043;-68
2021/10/31 05:06:03;;;;;;;8.45;6.97;;;10.70;34.10;;;;;;5089688;28;20075;-69
2021/10/31 05:08:33;;;;;;;10.07;7.40;;;10.60;34.50;;;;;;5100824;27;20044;-66
2021/10/31 05:11:01;;;;;;;8.57;6.97;;;10.60;35.10;;;;;;5094625;28;20100;-67
2021/10/31 05:13:30;;;;;;;8.88;6.97;;;10.50;35.50;;;;;;5085985;28;20094;-69
2021/10/31 05:16:04;;;;;;;9.30;7.40;;;10.40;37.00;;;;;;5091837;28;20044;-66
2021/10/31 05:18:32;;;;;;;9.00;7.32;;;10.40;37.40;;;;;;5089534;28;20044;-69
2021/10/31 05:21:03;;;;;;;11.52;7.30;;;10.40;37.30;;;;;;5089373;28;20040;-69
2021/10/31 05:23:35;;;;;;;9.57;7.47;;;10.40;37.30;;;;;;5068167;28;20434;-66
2021/10/31 05:26:08;;;;;;;9.93;7.13;;;10.50;37.20;;;;;;5088614;28;20089;-67
2021/10/31 05:28:36;;;;;;;8.48;6.78;;;10.50;37.20;;;;;;5091365;28;20044;-66
2021/10/31 05:31:08;;;;;;;9.98;7.18;;;10.50;36.20;;;;;;5092219;28;20245;-66
2021/10/31 05:33:36;;;;;;;8.65;6.88;;;10.50;36.40;;;;;;5086975;28;20607;-66
2021/10/31 05:36:11;;;;;;;10.05;7.53;;;10.50;37.10;;;;;;5086874;28;20036;-66
2021/10/31 05:38:39;;;;;;;9.00;6.47;;;10.50;36.90;;;;;;5088094;28;20118;-69
2021/10/31 05:41:10;;;;;;;10.60;6.95;;;10.50;37.40;;;;;;5091690;28;20047;-68
2021/10/31 05:43:42;;;;;;;8.85;6.82;;;10.50;37.50;;;;;;5085364;28;20569;-66
2021/10/31 05:46:11;;;;;;;8.77;7.20;;;10.50;37.40;;;;;;5089892;28;20040;-68
2021/10/31 05:48:44;;;;;;;9.52;6.72;;;10.50;37.50;;;;;;5090042;28;20301;-68
2021/10/31 05:51:14;;;;;;;7.80;5.93;;;10.50;37.50;;;;;;5094808;28;20131;-66
2021/10/31 05:53:44;;;;;;;8.07;5.68;;;10.50;37.50;;;;;;5090608;28;20036;-67
2021/10/31 05:56:16;;;;;;;9.25;6.40;;;10.50;37.50;;;;;;5100648;27;20082;-69
2021/10/31 05:58:44;;;;;;;7.80;6.07;;;10.50;37.60;;;;;;5102211;27;20044;-69
2021/10/31 06:01:12;;;;;;;10.27;6.55;;;10.60;37.60;;;;;;5099365;28;20036;-66
2021/10/31 06:03:42;;;;;;;8.60;6.07;;;10.60;37.60;;;;;;5095968;28;20122;-69
2021/10/31 06:06:13;;;;;;;9.52;6.25;;;10.60;37.10;;;;;;5102352;27;20040;-69
2021/10/31 06:08:45;;;;;;;8.88;6.35;;;10.70;36.60;;;;;;5098762;28;20052;-68
2021/10/31 06:11:14;;;;;;;7.45;5.93;;;10.70;36.00;;;;;;5104758;28;20051;-67
2021/10/31 06:13:45;;;;;;;8.77;7.30;;;10.70;35.20;;;;;;5098251;27;20035;-68
2021/10/31 06:16:16;;;;;;;8.77;7.20;;;10.60;35.50;;;;;;5098525;28;20040;-68
2021/10/31 06:18:48;;;;;;;9.65;7.43;;;10.60;35.60;;;;;;5100551;28;20059;-68
2021/10/31 06:21:17;;;;;;;10.70;7.47;;;10.80;34.30;;;;;;5097144;27;20142;-67
2021/10/31 06:23:50;;;;;;;12.85;7.60;;;10.80;33.40;;;;;;5105108;28;20078;-67
2021/10/31 06:26:18;;;;;;;8.60;6.65;;;10.80;32.70;;;;;;5099171;28;20143;-68
2021/10/31 06:28:51;;;;;;;12.38;7.38;;;10.80;32.40;;;;;;5102688;27;20137;-67
2021/10/31 06:31:21;;;;;;;9.70;7.25;;;10.80;32.40;;;;;;5099662;28;20471;-68
2021/10/31 06:33:50;;;;;;;9.85;6.68;;;10.80;32.10;;;;;;5095137;28;20043;-68
2021/10/31 06:36:20;;;;;;;10.20;7.43;;;10.80;33.00;;;;;;5097686;28;20059;-67
2021/10/31 06:38:49;;;;;;;10.80;7.35;;;10.70;33.00;;;;;;5107381;27;20035;-68
2021/10/31 06:41:17;;;;;;;10.82;7.13;;;10.60;33.80;;;;;;5104140;28;20058;-67
2021/10/31 06:43:47;;;;;;;11.52;7.80;;;10.60;34.30;;;;;;5102409;27;20036;-68
2021/10/31 06:46:19;;;;;;;8.55;7.20;;;10.70;33.80;;;;;;5100683;27;20260;-68
2021/10/31 06:48:51;;;;;;;10.00;8.00;;;10.70;33.00;;;;;;5101790;27;20104;-68
2021/10/31 06:51:24;;;;;;;11.20;7.82;;;10.80;32.40;;;;;;5108073;27;20067;-68
2021/10/31 06:53:52;;;;;;;11.60;7.93;;;10.80;31.80;;;;;;5099072;28;20566;-68
2021/10/31 06:56:20;;;;;;;9.52;7.70;;;10.80;31.00;;;;;;5092789;28;20511;-68
2021/10/31 06:58:56;;;;;;;10.50;7.40;;;10.90;31.00;;;;;;5095617;28;20050;-69
2021/10/31 07:01:28;;;;;;;10.93;7.82;;;10.80;30.50;;;;;;5087548;27;20050;-68
2021/10/31 07:04:03;;;;;;;8.50;6.90;;;10.90;31.10;;;;;;5089756;28;20415;-67
2021/10/31 07:06:34;;;;;;;10.65;8.73;;;10.90;30.70;;;;;;5092681;28;20519;-68
2021/10/31 07:09:04;;;;;;;11.32;8.15;;;10.90;30.00;;;;;;5090326;28;20048;-68
2021/10/31 07:11:34;;;;;;;9.23;7.55;;;10.90;30.00;;;;;;5083563;28;20048;-69
2021/10/31 07:14:07;;;;;;;11.95;8.55;;;11.00;29.80;;;;;;5080609;28;20043;-68
2021/10/31 07:16:39;;;;;;;9.55;7.43;;;11.00;29.60;;;;;;5077829;28;20036;-68
2021/10/31 07:19:10;;;;;;;9.98;7.60;;;10.90;30.80;;;;;;5093008;28;20047;-68
2021/10/31 07:21:45;;;;;;;9.75;7.50;;;11.00;30.70;;;;;;5090999;28;20491;-67
2021/10/31 07:24:14;;;;;;;9.68;8.00;;;11.00;29.70;;;;;;5081484;28;20084;-67
2021/10/31 07:26:44;;;;;;;9.43;7.68;;;11.00;29.80;;;;;;5081858;28;20044;-68
2021/10/31 07:29:13;;;;;;;9.10;7.10;;;11.20;29.70;;;;;;5089490;28;20127;-68
2021/10/31 07:31:45;;;;;;;8.73;6.90;;;11.30;29.30;;;;;;5083933;28;20344;-68
2021/10/31 07:34:14;;;;;;;7.75;6.63;;;11.40;27.70;;;;;;5083985;28;20071;-67
2021/10/31 07:36:45;;;;;;;9.05;6.53;;;11.50;27.70;;;;;;5085638;28;20407;-68
2021/10/31 07:39:13;;;;;;;8.60;6.78;;;11.60;27.30;;;;;;5092210;28;20036;-68
2021/10/31 07:41:41;;;;;;;8.30;6.78;;;11.70;26.20;;;;;;5096602;28;20532;-68
2021/10/31 07:44:13;;;;;;;10.57;7.70;;;11.80;25.40;;;;;;5089169;28;20495;-68
2021/10/31 07:46:44;;;;;;;9.77;7.78;;;11.90;24.40;;;;;;5080431;28;20063;-68
2021/10/31 07:49:16;;;;;;;10.60;7.63;;;12.00;24.20;;;;;;5092517;28;20085;-67
2021/10/31 07:51:45;;;;;;;8.35;6.70;;;12.10;23.50;;;;;;5077014;28;20131;-67
2021/10/31 07:54:17;;;;;;;10.07;7.00;;;12.20;22.80;;;;;;5082165;28;20040;-68
2021/10/31 07:56:51;;;;;;;6.60;5.32;;;12.30;22.20;;;;;;5080710;28;20035;-69
2021/10/31 07:59:21;;;;;;;8.25;5.00;;;12.20;20.70;;;;;;5091785;28;20074;-69
2021/10/31 08:01:54;;;;;;;6.55;4.72;;;12.30;20.60;;;;;;5093204;28;20136;-69
2021/10/31 08:04:26;;;;;;;8.00;5.13;;;12.30;20.60;;;;;;5091369;28;20090;-68
2021/10/31 08:06:55;;;;;;;6.03;4.93;;;12.40;20.20;;;;;;5087702;28;20950;-68
2021/10/31 08:09:25;;;;;;;6.78;5.20;;;12.40;20.20;;;;;;5095470;28;20054;-68
2021/10/31 08:11:56;;;;;;;8.15;5.35;;;12.40;20.20;;;;;;5092512;28;20058;-69
2021/10/31 08:14:28;;;;;;;5.90;4.88;;;12.60;19.50;;;;;;5090024;28;20068;-69
2021/10/31 08:17:01;;;;;;;8.13;5.50;;;12.60;19.50;;;;;;5091705;28;20040;-69
2021/10/31 08:19:29;;;;;;;9.30;6.47;;;12.60;19.10;;;;;;5087735;28;20135;-69
2021/10/31 08:22:01;;;;;;;8.77;6.18;;;12.60;19.00;;;;;;5079956;28;20188;-69
2021/10/31 08:24:37;;;;;;;6.90;5.65;;;12.70;18.10;;;;;;5094711;28;20046;-69
2021/10/31 08:27:05;;;;;;;8.60;5.93;;;12.70;18.20;;;;;;5095606;28;20495;-69
2021/10/31 08:29:36;;;;;;;7.30;5.32;;;12.70;18.80;;;;;;5073537;28;20411;-69
2021/10/31 08:32:09;;;;;;;7.13;4.68;;;12.70;18.80;;;;;;5074971;28;20040;-68
2021/10/31 08:34:37;;;;;;;5.97;4.70;;;12.80;18.00;;;;;;5080571;28;20203;-68
2021/10/31 08:37:09;;;;;;;4.75;3.80;;;12.90;18.30;;;;;;5091221;28;20036;-69
2021/10/31 08:39:39;;;;;;;4.70;3.97;;;13.00;17.90;;;;;;5091928;28;20059;-69
2021/10/31 08:42:08;;;;;;;7.72;4.20;;;13.20;17.20;;;;;;5089001;28;20165;-69
2021/10/31 08:44:40;;;;;;;6.43;4.55;;;13.20;16.10;;;;;;5089759;28;20044;-69
2021/10/31 08:47:23;;;;;;;6.00;4.97;;;13.30;15.70;;;;;;5093893;28;21349;-69
2021/10/31 08:49:52;;;;;;;7.32;5.95;;;13.30;14.90;;;;;;5090700;28;20519;-69
2021/10/31 08:52:23;;;;;;;8.75;6.05;;;13.20;15.30;;;;;;5088013;28;20521;-69
2021/10/31 08:54:52;;;;;;;7.25;5.82;;;12.90;17.40;;;;;;5095312;28;20063;-69
2021/10/31 08:57:20;;;;;;;7.35;5.80;;;12.80;18.00;;;;;;5069059;28;20126;-69
2021/10/31 08:59:49;;;;;;;6.88;5.25;;;12.80;18.40;;;;;;5097391;28;20040;-69
2021/10/31 09:02:17;;;;;;;6.50;5.45;;;12.90;18.40;;;;;;5093844;28;20048;-69
2021/10/31 09:04:45;;;;;;;6.68;5.25;;;13.00;17.40;;;;;;5093443;28;20044;-68
2021/10/31 09:07:15;;;;;;;6.38;5.18;;;13.10;17.50;;;;;;5088096;28;20047;-68
2021/10/31 09:09:45;;;;;;;6.13;5.47;;;13.10;16.80;;;;;;5090965;28;20055;-69
2021/10/31 09:12:18;;;;;;;9.35;6.07;;;13.30;16.40;;;;;;5086889;28;20047;-69
2021/10/31 09:14:49;;;;;;;9.43;6.75;;;13.30;16.00;;;;;;5076365;28;20040;-69
2021/10/31 09:17:19;;;;;;;7.20;6.20;;;13.50;16.00;;;;;;5093956;28;20461;-68
2021/10/31 09:19:51;;;;;;;8.88;6.55;;;13.50;15.50;;;;;;5092218;28;20085;-67
2021/10/31 09:22:23;;;;;;;8.27;6.40;;;13.70;14.30;;;;;;5066972;28;20051;-68
2021/10/31 09:24:53;;;;;;;8.18;6.22;;;13.80;14.00;;;;;;5089852;28;20475;-67
2021/10/31 09:27:21;;;;;;;7.82;5.68;;;14.00;12.70;;;;;;5089547;28;20498;-67
2021/10/31 09:29:52;;;;;;;6.57;5.68;;;14.10;12.60;;;;;;5091502;28;20048;-68
2021/10/31 09:32:34;;;;;;;5.90;5.03;;;14.10;12.20;;;;;;5096662;28;20170;-68
2021/10/31 09:35:03;;;;;;;8.38;5.30;;;14.30;11.40;;;;;;5067023;28;20126;-69
2021/10/31 09:37:31;;;;;;;7.22;5.47;;;14.30;11.10;;;;;;5104661;27;20048;-69
2021/10/31 09:40:05;;;;;;;6.68;5.70;;;14.50;10.80;;;;;;5096632;28;20043;-69
2021/10/31 09:42:33;;;;;;;8.43;4.38;;;14.60;10.50;;;;;;5093316;28;20120;-69
2021/10/31 09:45:02;;;;;;;5.70;4.65;;;14.70;8.90;;;;;;5102912;27;20067;-69
2021/10/31 09:47:30;;;;;;;6.93;5.60;;;14.70;9.20;;;;;;5103520;27;20055;-69
2021/10/31 09:49:58;;;;;;;5.75;4.65;;;14.80;8.70;;;;;;5105789;27;20461;-69
2021/10/31 09:52:28;;;;;;;5.93;4.65;;;14.90;7.40;;;;;;5085975;28;20078;-68
2021/10/31 09:55:00;;;;;;;6.95;4.57;;;15.00;7.20;;;;;;5080286;28;20036;-69
2021/10/31 09:57:33;;;;;;;5.70;4.07;;;15.00;7.20;;;;;;5084296;28;20043;-69
2021/10/31 10:00:02;;;;;;;4.63;3.83;;;15.10;6.30;;;;;;5091973;28;20047;-69
2021/10/31 10:05:27;;;;;;;6.15;4.50;;;15.20;5.10;;;;;;5089554;27;20464;-69
2021/10/31 10:08:09;;;;;;;6.07;4.60;;;15.40;5.20;;;;;;5079145;28;20127;-68
2021/10/31 10:10:41;;;;;;;4.75;4.13;;;15.40;4.30;;;;;;5086252;28;20072;-68
2021/10/31 10:13:22;;;;;;;6.50;4.03;;;15.50;4.10;;;;;;5089193;28;20136;-69
2021/10/31 10:15:54;;;;;;;4.97;3.47;;;15.60;3.80;;;;;;5078542;28;20040;-69
2021/10/31 10:18:30;;;;;;;5.10;4.15;;;15.70;2.60;;;;;;5070404;28;20047;-68
2021/10/31 10:21:16;;;;;;;3.92;3.40;;;15.90;2.60;;;;;;5076023;28;20599;-67
2021/10/31 10:23:55;;;;;;;6.70;4.95;;;15.90;2.60;;;;;;5073092;28;20048;-68
2021/10/31 10:26:32;;;;;;;6.70;4.38;;;16.00;2.80;;;;;;5082519;28;20099;-69
2021/10/31 10:29:17;;;;;;;5.95;3.65;;;16.00;1.90;;;;;;5080850;28;20079;-68
2021/10/31 10:31:47;;;;;;;6.90;3.92;;;16.20;1.30;;;;;;5075393;28;20059;-68
2021/10/31 10:34:36;;;;;;;5.60;3.85;;;16.30;1.80;;;;;;5085525;28;20051;-69
2021/10/31 10:37:10;;;;;;;4.20;3.47;;;16.40;1.00;;;;;;5090461;28;20500;-67
2021/10/31 10:39:44;;;;;;;5.50;3.95;;;16.50;1.00;;;;;;5088307;28;20106;-69
2021/10/31 10:42:23;;;;;;;4.47;3.53;;;16.60;1.00;;;;;;5073864;28;20052;-70
2021/10/31 10:44:58;;;;;;;4.70;4.15;;;16.70;1.00;;;;;;5093033;28;20040;-68
2021/10/31 10:47:31;;;;;;;4.47;3.53;;;16.80;1.00;;;;;;5085531;28;20638;-68
2021/10/31 10:50:01;;;;;;;5.75;3.92;;;16.90;1.00;;;;;;5075602;28;20251;-69
2021/10/31 10:52:34;;;;;;;4.72;3.70;;;17.10;1.00;;;;;;5081546;27;20045;-67
2021/10/31 10:55:11;;;;;;;4.07;3.50;;;17.20;1.00;;;;;;5080046;28;20097;-69
2021/10/31 10:57:42;;;;;;;5.70;3.67;;;17.10;1.00;;;;;;5085652;28;20048;-69
2021/10/31 11:00:15;;;;;;;4.25;3.67;;;17.10;1.00;;;;;;5088782;28;20131;-68
2021/10/31 11:02:47;;;;;;;4.28;3.30;;;17.20;1.00;;;;;;5062711;28;20080;-68
2021/10/31 11:05:19;;;;;;;4.00;3.15;;;17.40;1.00;;;;;;5070252;28;21090;-69
2021/10/31 11:07:51;;;;;;;3.97;3.53;;;17.30;1.00;;;;;;5093534;28;20082;-68
2021/10/31 11:10:29;;;;;;;4.45;3.45;;;17.40;1.00;;;;;;5079120;28;20056;-68
2021/10/31 11:13:05;;;;;;;4.05;3.50;;;17.60;1.00;;;;;;5077928;28;20041;-68
2021/10/31 11:15:42;;;;;;;4.18;3.35;;;17.80;1.00;;;;;;5092901;28;20054;-69
2021/10/31 11:18:10;;;;;;;4.10;2.85;;;17.80;1.00;;;;;;5093596;28;20126;-70
2021/10/31 11:20:41;;;;;;;3.60;2.88;;;18.10;1.00;;;;;;5076848;28;20320;-68
2021/10/31 11:23:11;;;;;;;4.13;3.13;;;18.00;1.00;;;;;;5085721;28;20067;-68
2021/10/31 11:25:42;;;;;;;3.78;3.03;;;18.10;1.00;;;;;;5092692;28;20068;-68
2021/10/31 11:28:12;;;;;;;5.72;3.13;;;18.10;1.00;;;;;;5093676;28;20515;-68
2021/10/31 11:31:02;;;;;;;5.72;3.20;;;18.10;1.00;;;;;;5090622;27;20044;-68
2021/10/31 11:33:35;;;;;;;4.10;2.60;;;18.10;1.00;;;;;;5078219;28;20463;-69
2021/10/31 11:36:08;;;;;;;4.10;2.92;;;18.20;1.00;;;;;;5092560;27;20075;-69
2021/10/31 11:38:43;;;;;;;4.32;2.95;;;18.10;1.00;;;;;;5067399;28;20050;-69
2021/10/31 11:41:16;;;;;;;4.97;3.15;;;18.20;1.00;;;;;;5074507;28;20762;-67
2021/10/31 11:43:51;;;;;;;3.33;2.72;;;18.30;1.00;;;;;;5088775;27;20078;-69
2021/10/31 11:46:36;;;;;;;5.57;3.20;;;18.30;1.00;;;;;;5094786;27;20044;-68
2021/10/31 11:49:06;;;;;;;3.53;2.63;;;18.30;1.00;;;;;;5091264;27;20522;-70
2021/10/31 11:51:45;;;;;;;5.00;3.20;;;18.20;1.00;;;;;;5088565;28;20055;-69
2021/10/31 11:54:17;;;;;;;4.32;2.58;;;18.20;1.00;;;;;;5084985;28;20097;-69
2021/10/31 11:56:52;;;;;;;3.40;2.55;;;18.30;1.00;;;;;;5073358;28;20036;-68
2021/10/31 11:59:21;;;;;;;4.65;2.50;;;18.20;1.00;;;;;;5091368;28;20069;-69
2021/10/31 12:01:54;;;;;;;3.90;2.70;;;18.30;1.00;;;;;;5081007;28;20052;-69
2021/10/31 12:05:20;;;;;;;3.22;2.45;;;18.50;1.00;;;;;;5081188;28;20132;-68
2021/10/31 12:07:53;;;;;;;2.83;2.40;;;18.60;1.00;;;;;;5076296;28;20036;-69
2021/10/31 12:10:27;;;;;;;7.32;3.00;;;18.70;1.00;;;;;;5092830;28;20126;-69
2021/10/31 12:13:11;;;;;;;5.68;2.72;;;18.90;1.00;;;;;;5086173;28;20454;-71
2021/10/31 12:15:58;;;;;;;5.50;3.00;;;18.90;1.00;;;;;;5082118;27;20131;-69
2021/10/31 12:21:22;;;;;;;3.50;2.75;;;19.00;1.00;;;;;;5156138;27;20567;-70
2021/10/31 12:23:55;;;;;;;4.78;2.65;;;18.90;1.00;;;;;;5088343;28;20062;-69
2021/10/31 12:26:46;;;;;;;4.15;3.17;;;19.00;1.00;;;;;;5084613;28;20419;-69
2021/10/31 12:29:35;;;;;;;10.25;2.95;;;19.10;1.00;;;;;;5096729;28;20040;-70
2021/10/31 12:32:16;;;;;;;5.45;2.63;;;19.20;1.00;;;;;;5093923;28;20067;-69
2021/10/31 12:34:47;;;;;;;5.03;2.88;;;19.30;1.00;;;;;;5097542;28;20070;-70
2021/10/31 12:37:26;;;;;;;4.93;2.70;;;19.30;1.00;;;;;;5097558;28;20480;-68
2021/10/31 12:39:58;;;;;;;5.20;2.72;;;19.30;1.00;;;;;;5093143;28;20039;-68
2021/10/31 12:42:29;;;;;;;4.30;3.15;;;19.30;1.00;;;;;;5087332;28;20048;-69
2021/10/31 12:45:01;;;;;;;2.95;2.50;;;19.30;1.00;;;;;;5100942;28;20047;-70
2021/10/31 12:47:39;;;;;;;3.72;2.90;;;19.30;1.00;;;;;;5097151;28;20046;-70
2021/10/31 12:50:17;;;;;;;4.35;2.83;;;19.30;1.00;;;;;;5096169;28;20222;-70
2021/10/31 12:52:58;;;;;;;3.45;2.85;;;19.20;1.00;;;;;;5091913;28;20124;-70
2021/10/31 12:55:31;;;;;;;5.63;3.33;;;19.00;1.00;;;;;;5093063;28;20109;-69
2021/10/31 12:58:02;;;;;;;2.90;2.40;;;19.00;1.00;;;;;;5093644;28;20036;-69
2021/10/31 13:00:39;;;;;;;3.50;2.40;;;18.90;1.00;;;;;;5097469;28;20051;-70
2021/10/31 13:03:08;;;;;;;2.92;2.05;;;19.00;1.00;;;;;;5092680;28;20050;-69
2021/10/31 13:05:44;;;;;;;4.80;1.83;;;19.30;1.00;;;;;;5099258;28;20043;-70
2021/10/31 13:08:14;;;;;;;2.60;1.88;;;19.40;1.00;;;;;;5091034;28;20530;-71
2021/10/31 13:10:49;;;;;;;2.17;1.40;;;19.50;1.00;;;;;;5100129;28;20040;-70
2021/10/31 13:13:29;;;;;;;5.97;1.70;;;19.60;1.00;;;;;;5091574;28;20558;-71
2021/10/31 13:16:01;;;;;;;2.38;1.70;;;19.70;1.00;;;;;;5100271;28;20055;-69
2021/10/31 13:18:35;;;;;;;4.80;1.77;;;19.80;1.00;;;;;;5096427;28;20040;-70
2021/10/31 13:21:21;;;;;;;3.72;2.05;;;19.70;1.00;;;;;;5093962;28;20051;-69